createdAt,value
2019-03-31T00:03:00.841Z,63.20
2019-03-31T00:07:51.730Z,63.50
2019-03-31T00:12:42.713Z,63.90
2019-03-31T00:17:33.597Z,64.00
2019-03-31T00:22:24.527Z,64.20
2019-03-31T00:27:15.482Z,64.60
2019-03-31T00:32:06.406Z,63.40
2019-03-31T00:36:57.327Z,63.70
2019-03-31T00:41:48.255Z,63.50
2019-03-31T00:46:39.923Z,63.70
2019-03-31T00:51:30.915Z,63.90
2019-03-31T00:56:22.587Z,64.60
2019-03-31T01:06:35.227Z,63.10
2019-03-31T01:11:26.957Z,63.20
2019-03-31T01:16:18.660Z,63.60
2019-03-31T01:21:09.586Z,63.60
2019-03-31T01:26:00.687Z,63.80
2019-03-31T01:30:52.202Z,64.70
2019-03-31T01:35:43.122Z,64.70
2019-03-31T01:40:34.043Z,63.50
2019-03-31T01:45:24.971Z,63.10
2019-03-31T01:50:15.919Z,63.50
2019-03-31T01:55:06.840Z,63.90
2019-03-31T01:59:57.797Z,64.20
2019-03-31T02:04:48.734Z,64.40
2019-03-31T02:09:39.646Z,64.70
2019-03-31T02:14:30.570Z,64.60
2019-03-31T02:19:21.511Z,63.40
2019-03-31T02:24:12.429Z,63.10
2019-03-31T02:29:03.349Z,63.60
2019-03-31T02:33:54.284Z,63.90
2019-03-31T02:38:45.223Z,64.30
2019-03-31T02:43:36.890Z,65.10
2019-03-31T02:48:27.861Z,64.70
2019-03-31T02:53:18.811Z,63.50
2019-03-31T02:58:09.742Z,62.80
2019-03-31T03:03:00.657Z,63.10
2019-03-31T03:07:52.322Z,63.80
2019-03-31T03:12:43.240Z,63.80
2019-03-31T03:17:34.167Z,64.00
2019-03-31T03:22:25.183Z,64.20
2019-03-31T03:27:16.063Z,64.30
2019-03-31T03:32:07.937Z,63.00
2019-03-31T03:36:58.700Z,62.90
2019-03-31T03:41:49.711Z,63.20
2019-03-31T03:46:40.604Z,63.50
2019-03-31T03:51:31.532Z,63.80
2019-03-31T03:56:22.465Z,63.90
2019-03-31T04:01:13.379Z,64.40
2019-03-31T04:06:04.299Z,63.40
2019-03-31T04:10:58.123Z,62.60
2019-03-31T04:15:49.807Z,63.20
2019-03-31T04:20:40.743Z,63.20
2019-03-31T04:25:31.672Z,63.40
2019-03-31T04:30:22.609Z,63.70
2019-03-31T04:35:14.285Z,64.40
2019-03-31T04:40:05.249Z,64.90
2019-03-31T04:44:56.934Z,62.70
2019-03-31T04:49:47.872Z,62.70
2019-03-31T04:54:38.800Z,62.90
2019-03-31T04:59:29.743Z,63.30
2019-03-31T05:04:20.667Z,63.60
2019-03-31T05:09:11.603Z,63.80
2019-03-31T05:14:03.342Z,64.20
2019-03-31T05:18:54.238Z,64.20
2019-03-31T05:23:45.168Z,63.10
2019-03-31T05:28:36.832Z,63.50
2019-03-31T05:33:27.759Z,63.40
2019-03-31T05:38:18.682Z,64.50
2019-03-31T05:43:09.621Z,64.50
2019-03-31T05:48:00.624Z,65.20
2019-03-31T05:52:52.260Z,64.70
2019-03-31T05:57:43.178Z,64.70
2019-03-31T06:02:34.119Z,64.20
2019-03-31T06:07:25.055Z,64.20
2019-03-31T06:12:16.039Z,64.70
2019-03-31T06:17:07.675Z,65.50
2019-03-31T06:21:58.604Z,65.50
2019-03-31T06:26:49.531Z,65.70
2019-03-31T06:31:40.495Z,66.00
2019-03-31T06:36:32.142Z,63.90
2019-03-31T06:41:23.058Z,63.90
2019-03-31T06:46:14.728Z,64.70
2019-03-31T06:51:05.672Z,64.70
2019-03-31T06:55:56.598Z,65.10
2019-03-31T07:00:47.548Z,65.50
2019-03-31T07:05:39.204Z,65.90
2019-03-31T07:10:30.139Z,65.90
2019-03-31T07:15:21.055Z,64.60
2019-03-31T07:20:12.011Z,64.00
2019-03-31T07:25:03.961Z,64.40
2019-03-31T07:29:55.636Z,64.90
2019-03-31T07:34:46.567Z,65.20
2019-03-31T07:39:37.539Z,65.50
2019-03-31T07:44:28.464Z,65.60
2019-03-31T07:49:19.380Z,65.60
2019-03-31T07:54:10.409Z,64.60
2019-03-31T07:59:02.141Z,64.90
2019-03-31T08:03:53.019Z,64.80
2019-03-31T08:08:43.976Z,65.20
2019-03-31T08:13:34.903Z,65.40
2019-03-31T08:18:26.598Z,65.90
2019-03-31T08:23:17.555Z,65.90
2019-03-31T08:28:09.228Z,63.20
2019-03-31T08:33:00.167Z,63.20
2019-03-31T08:37:51.102Z,64.50
2019-03-31T08:42:42.054Z,64.70
2019-03-31T08:47:33.728Z,65.20
2019-03-31T08:52:24.670Z,65.20
2019-03-31T08:57:15.595Z,64.40
2019-03-31T09:02:12.762Z,64.10
2019-03-31T09:07:03.747Z,63.20
2019-03-31T09:11:54.694Z,63.00
2019-03-31T09:16:45.614Z,63.20
2019-03-31T09:21:36.550Z,63.30
2019-03-31T09:26:27.487Z,63.40
2019-03-31T09:31:19.156Z,63.70
2019-03-31T09:36:16.540Z,63.70
2019-03-31T09:41:01.059Z,62.50
2019-03-31T09:45:52.726Z,63.20
2019-03-31T09:50:43.823Z,63.00
2019-03-31T09:55:35.493Z,63.60
2019-03-31T10:05:48.477Z,63.50
2019-03-31T10:10:38.959Z,63.00
2019-03-31T10:15:29.895Z,62.00
2019-03-31T10:20:20.888Z,61.90
2019-03-31T10:25:13.495Z,62.20
2019-03-31T10:30:02.766Z,62.20
2019-03-31T10:34:53.690Z,62.00
2019-03-31T10:39:44.630Z,62.90
2019-03-31T10:44:35.559Z,62.10
2019-03-31T10:49:26.484Z,61.10
2019-03-31T10:54:18.138Z,61.80
2019-03-31T10:59:09.821Z,62.10
2019-03-31T11:04:00.734Z,62.10
2019-03-31T11:08:51.715Z,62.30
2019-03-31T11:13:42.643Z,62.20
2019-03-31T11:18:33.628Z,61.40
2019-03-31T11:23:24.619Z,60.90
2019-03-31T11:28:15.545Z,62.20
2019-03-31T11:33:07.678Z,61.50
2019-03-31T11:37:58.195Z,61.40
2019-03-31T11:42:49.126Z,61.40
2019-03-31T11:47:40.808Z,61.40
2019-03-31T11:52:31.767Z,60.90
2019-03-31T11:57:22.687Z,60.60
2019-03-31T12:02:26.364Z,61.00
2019-03-31T12:07:05.315Z,61.10
2019-03-31T12:11:56.251Z,61.10
2019-03-31T12:16:47.183Z,61.10
2019-03-31T12:21:38.197Z,59.80
2019-03-31T12:26:29.152Z,59.40
2019-03-31T12:31:20.815Z,60.50
2019-03-31T12:36:11.731Z,60.00
2019-03-31T12:41:02.655Z,60.00
2019-03-31T12:45:54.166Z,59.50
2019-03-31T12:50:45.836Z,58.80
2019-03-31T12:55:36.775Z,58.70
2019-03-31T13:00:27.707Z,59.90
2019-03-31T13:05:18.636Z,59.60
2019-03-31T13:10:10.319Z,58.60
2019-03-31T13:15:01.251Z,58.60
2019-03-31T13:19:52.199Z,58.10
2019-03-31T13:24:43.131Z,57.00
2019-03-31T13:29:34.106Z,57.30
2019-03-31T13:34:25.043Z,57.60
2019-03-31T13:39:15.958Z,57.10
2019-03-31T13:44:06.887Z,57.00
2019-03-31T13:48:57.831Z,56.70
2019-03-31T13:53:50.250Z,56.50
2019-03-31T13:58:41.848Z,56.50
2019-03-31T14:03:32.208Z,57.00
2019-03-31T14:08:25.849Z,57.40
2019-03-31T14:13:14.162Z,56.70
2019-03-31T14:18:05.065Z,56.40
2019-03-31T14:22:55.987Z,56.50
2019-03-31T14:27:46.911Z,56.50
2019-03-31T14:32:37.839Z,56.60
2019-03-31T14:37:30.244Z,55.30
2019-03-31T14:42:21.167Z,55.20
2019-03-31T14:47:12.091Z,55.30
2019-03-31T14:52:03.036Z,55.10
2019-03-31T14:56:53.964Z,55.90
2019-03-31T15:01:44.888Z,56.30
2019-03-31T15:06:36.561Z,56.70
2019-03-31T15:11:27.496Z,56.70
2019-03-31T15:16:25.535Z,55.30
2019-03-31T15:21:16.459Z,55.00
2019-03-31T15:26:07.370Z,55.80
2019-03-31T15:30:59.779Z,55.30
2019-03-31T15:35:50.751Z,55.30
2019-03-31T15:40:42.421Z,53.90
2019-03-31T15:45:33.330Z,53.80
2019-03-31T15:50:24.250Z,54.10
2019-03-31T15:55:15.297Z,54.50
2019-03-31T16:00:06.215Z,55.90
2019-03-31T16:04:57.139Z,55.30
2019-03-31T16:09:48.079Z,54.40
2019-03-31T16:14:39.016Z,52.60
2019-03-31T16:19:30.677Z,54.10
2019-03-31T16:24:22.342Z,55.30
2019-03-31T16:29:13.314Z,55.20
2019-03-31T16:34:04.998Z,55.20
2019-03-31T16:38:55.918Z,55.20
2019-03-31T16:43:46.917Z,53.80
2019-03-31T16:48:37.851Z,54.50
2019-03-31T16:53:29.535Z,54.90
2019-03-31T16:58:20.461Z,54.90
2019-03-31T17:03:11.435Z,55.60
2019-03-31T17:08:02.438Z,56.60
2019-03-31T17:12:53.390Z,54.40
2019-03-31T17:17:44.320Z,54.70
2019-03-31T17:22:35.246Z,55.30
2019-03-31T17:27:26.167Z,55.60
2019-03-31T17:32:17.166Z,56.10
2019-03-31T17:37:08.112Z,56.40
2019-03-31T17:41:59.039Z,55.10
2019-03-31T17:46:49.967Z,55.30
2019-03-31T17:51:41.655Z,56.30
2019-03-31T17:56:32.961Z,56.20
2019-03-31T18:01:23.886Z,57.00
2019-03-31T18:06:14.810Z,56.80
2019-03-31T18:11:05.758Z,55.70
2019-03-31T18:15:56.715Z,55.50
2019-03-31T18:20:48.387Z,56.10
2019-03-31T18:25:39.328Z,56.20
2019-03-31T18:30:30.259Z,57.00
2019-03-31T18:35:21.200Z,57.10
2019-03-31T18:40:12.850Z,56.60
2019-03-31T18:45:03.797Z,56.50
2019-03-31T18:49:54.772Z,56.40
2019-03-31T18:54:49.395Z,56.90
2019-03-31T18:59:41.826Z,56.90
2019-03-31T19:04:37.715Z,56.90
2019-03-31T19:14:51.239Z,57.60
2019-03-31T19:19:43.167Z,56.60
2019-03-31T19:24:39.107Z,56.50
2019-03-31T19:29:35.109Z,56.70
2019-03-31T19:34:26.067Z,56.90
2019-03-31T19:39:18.963Z,57.10
2019-03-31T19:49:30.357Z,57.70
2019-03-31T19:54:26.139Z,56.10
2019-03-31T19:59:20.915Z,56.20
2019-03-31T20:04:15.879Z,56.30
2019-03-31T20:09:07.799Z,56.80
2019-03-31T20:14:00.631Z,56.90
2019-03-31T20:24:16.990Z,57.60
2019-03-31T20:29:14.810Z,56.00
2019-03-31T20:39:27.175Z,56.50
2019-03-31T20:44:18.112Z,56.50
2019-03-31T20:49:09.036Z,56.90
2019-03-31T20:53:59.972Z,56.90
2019-03-31T20:58:51.642Z,58.10
2019-03-31T21:03:42.570Z,58.10
2019-03-31T21:08:33.499Z,56.80
2019-03-31T21:13:24.421Z,56.10
2019-03-31T21:18:15.346Z,56.10
2019-03-31T21:23:06.375Z,56.40
2019-03-31T21:27:57.978Z,57.20
2019-03-31T21:32:48.917Z,57.10
2019-03-31T21:37:39.848Z,57.50
2019-03-31T21:46:56.035Z,57.00
2019-03-31T21:51:46.535Z,56.10
2019-03-31T21:56:38.210Z,56.30
2019-03-31T22:01:29.135Z,56.30
2019-03-31T22:06:20.059Z,56.60
2019-03-31T22:11:11.015Z,57.20
2019-03-31T22:16:02.724Z,58.10
2019-03-31T22:20:53.634Z,58.00
2019-03-31T22:25:44.563Z,58.00
2019-03-31T22:30:35.488Z,56.70
2019-03-31T22:35:26.414Z,56.10
2019-03-31T22:40:17.344Z,56.50
2019-03-31T22:45:08.285Z,56.70
2019-03-31T22:49:59.220Z,57.20
2019-03-31T22:54:50.145Z,57.90
2019-03-31T22:59:41.121Z,57.90
2019-03-31T23:04:32.011Z,58.60
2019-03-31T23:09:22.940Z,57.50
2019-03-31T23:14:13.882Z,56.40
2019-03-31T23:19:05.534Z,56.50
2019-03-31T23:23:57.187Z,57.10
2019-03-31T23:28:48.106Z,57.10
2019-03-31T23:33:39.043Z,57.70
2019-03-31T23:38:29.972Z,58.20
2019-03-31T23:43:20.888Z,58.50
2019-03-31T23:48:11.808Z,58.70
2019-03-31T23:53:02.739Z,57.70
2019-03-31T23:57:53.663Z,56.50
